• Join FlightAware (Why Join?)
  • Login
  • US Flag 
05:39PM EDT


 

Airport Tracker/Info


-or-


 

Live Flight TrackerFlight Track Log ✈ SWA484 ✈ 23-Apr-2013 ✈ KMCO - KBDL

Flight Track Log - Related Links

Times and Time Zones

All times are in EDT time to prevent confusion due to time zone crossing. See the SWA484 flight status page for this flight to view local times or setup timezone preferences in your user account.

Time Position Orientation Groundspeed Altitude Reporting Facility
EDT Latitude Longitude Course Direction KTS MPH feet Rate Location/Type
09:30AM 28.4333 -81.3000 24° Northeast 152 175 900  Level Orlando TRACON
09:31AM 28.4667 -81.2833 24° Northeast 188 216 2,500 2,040 Climbing Orlando TRACON
09:32AM 28.5333 -81.2500 24° Northeast 255 293 4,800 2,640 Climbing Orlando TRACON
09:34AM 28.6864 -81.2739 352° North 286 329 10,800 2,760 Climbing Jacksonville Center
09:35AM 28.7722 -81.2961 347° North 292 336 13,300 3,000 Climbing Jacksonville Center
09:36AM 28.8686 -81.3231 346° North 327 376 16,800 3,180 Climbing Jacksonville Center
09:37AM 28.9672 -81.3547 344° North 354 407 19,700 2,640 Climbing Jacksonville Center
09:38AM 29.0697 -81.3792 348° North 368 423 22,100 1,560 Climbing Jacksonville Center
09:39AM 29.1722 -81.3967 352° North 379 436 22,900 960 Climbing Jacksonville Center
09:40AM 29.2706 -81.4072 355° North 362 417 24,100 1,620 Climbing Jacksonville Center
09:41AM 29.3750 -81.4150 356° North 372 428 26,200 1,800 Climbing Jacksonville Center
09:42AM 29.4731 -81.4303 352° North 383 441 27,800 1,740 Climbing Jacksonville Center
09:43AM 29.5839 -81.4383 356° North 393 452 29,700 1,560 Climbing Jacksonville Center
09:44AM 29.6950 -81.4700 346° North 393 452 31,000 900 Climbing Jacksonville Center
09:45AM 29.7997 -81.5164 339° North 398 458 31,500 1,080 Climbing Jacksonville Center
09:46AM 29.9067 -81.5603 340° North 403 464 33,200 1,980 Climbing Jacksonville Center
09:47AM 30.0303 -81.5875 349° North 414 476 35,600 1,680 Climbing Jacksonville Center
09:48AM 30.1428 -81.5692 North 403 464 36,600 1,020 Climbing Jacksonville Center
09:49AM 30.2614 -81.5483 North 411 473 37,700 1,200 Climbing Jacksonville Center
09:50AM 30.3803 -81.5250 10° North 422 486 39,000 600 Climbing Jacksonville Center
09:51AM 30.4950 -81.5064 North 422 486 39,000  Level Jacksonville Center
09:52AM 30.6094 -81.4853 North 422 486 39,000  Level Jacksonville Center
09:53AM 30.7242 -81.4667 North 422 486 39,000  Level Jacksonville Center
09:54AM 30.8386 -81.4433 10° North 422 486 39,000  Level Jacksonville Center
09:55AM 30.9533 -81.4244 North 422 486 39,000  Level Jacksonville Center
09:56AM 31.0658 -81.4033 North 412 474 39,000  Level Jacksonville Center
09:57AM 31.1783 -81.3847 North 402 463 39,000  Level Jacksonville Center
09:58AM 31.2864 -81.3392 20° North 411 473 39,000  Level Jacksonville Center
09:59AM 31.3856 -81.2597 34° Northeast 412 474 39,000  Level Jacksonville Center
10:00AM 31.4744 -81.1875 35° Northeast 417 480 39,000  Level Jacksonville Center
10:01AM 31.5819 -81.1025 34° Northeast 422 486 39,000  Level Jacksonville Center
10:02AM 31.6808 -81.0250 34° Northeast 422 486 39,000  Level Jacksonville Center
10:03AM 31.7675 -80.9547 35° Northeast 422 486 39,000  Level Jacksonville Center
10:04AM 31.8767 -80.8644 35° Northeast 422 486 39,000  Level Jacksonville Center
10:05AM 31.9656 -80.7939 34° Northeast 428 493 39,000  Level Jacksonville Center
10:06AM 32.0747 -80.7106 33° Northeast 423 487 39,000  Level Jacksonville Center
10:07AM 32.1653 -80.6322 36° Northeast 429 494 39,000  Level Jacksonville Center
10:08AM 32.2661 -80.5511 34° Northeast 429 494 39,000  Level Jacksonville Center
10:09AM 32.3667 -80.4725 33° Northeast 434 499 39,000  Level Jacksonville Center
10:10AM 32.4675 -80.3883 35° Northeast 434 499 39,000  Level Jacksonville Center
10:11AM 32.5661 -80.3069 35° Northeast 434 499 39,000  Level Jacksonville Center
10:12AM 32.6644 -80.2250 35° Northeast 434 499 39,000  Level Jacksonville Center
10:13AM 32.7672 -80.1431 34° Northeast 434 499 39,000  Level Jacksonville Center
10:14AM 32.8656 -80.0583 36° Northeast 434 499 39,000  Level Jacksonville Center
10:15AM 32.9681 -79.9808 32° Northeast 434 499 39,000  Level Jacksonville Center
10:16AM 33.0850 -79.8978 31° Northeast 429 494 39,000  Level Jacksonville Center
10:17AM 33.1856 -79.8247 31° Northeast 429 494 39,000  Level Jacksonville Center
10:18AM 33.2881 -79.7517 31° Northeast 429 494 39,000  Level Jacksonville Center
10:19AM 33.3906 -79.6761 32° Northeast 424 488 39,000  Level Jacksonville Center
10:20AM 33.4950 -79.6000 31° Northeast 424 488 39,000  Level Jacksonville Center
10:21AM 33.5953 -79.5239 32° Northeast 424 488 39,000  Level Jacksonville Center
10:22AM 33.6975 -79.4478 32° Northeast 424 488 39,000  Level Jacksonville Center
10:23AM 33.7856 -79.3842 31° Northeast 419 482 39,000  Level Jacksonville Center
10:24AM 33.8878 -79.3100 31° Northeast 425 489 39,000  Level Jacksonville Center
10:25AM 33.9919 -79.2333 31° Northeast 425 489 39,000  Level Jacksonville Center
10:26AM 34.0961 -79.1536 32° Northeast 430 495 39,000  Level Jacksonville Center
10:27AM 34.2022 -79.0764 31° Northeast 435 501 39,000  Level Jacksonville Center
10:29AM 34.4369 -78.9008 32° Northeast 457 526 39,000  Level Washington Center
10:30AM 34.5436 -78.8142 34° Northeast 457 526 39,000  Level Washington Center
10:31AM 34.6522 -78.7303 32° Northeast 457 526 39,000  Level Washington Center
10:32AM 34.7756 -78.6389 31° Northeast 467 537 39,000  Level Washington Center
10:33AM 34.8692 -78.5664 32° Northeast 454 522 39,000  Level Washington Center
10:34AM 34.9756 -78.4842 32° Northeast 454 522 39,000  Level Washington Center
10:35AM 35.0797 -78.4017 33° Northeast 449 517 39,000  Level Washington Center
10:36AM 35.1989 -78.3117 32° Northeast 450 518 39,000  Level Washington Center
10:37AM 35.3028 -78.2311 32° Northeast 450 518 39,000  Level Washington Center
10:38AM 35.4089 -78.1456 33° Northeast 450 518 39,000  Level Washington Center
10:39AM 35.5150 -78.0647 32° Northeast 450 518 39,000  Level Washington Center
10:40AM 35.6189 -77.9861 32° Northeast 445 512 39,000  Level Washington Center
10:41AM 35.7247 -77.9022 33° Northeast 445 512 39,000  Level Washington Center
10:42AM 35.8308 -77.8208 32° Northeast 445 512 39,000  Level Washington Center
10:43AM 35.9364 -77.7392 32° Northeast 445 512 39,000  Level Washington Center
10:44AM 36.0403 -77.6469 36° Northeast 445 512 39,000  Level Washington Center
10:45AM 36.1422 -77.5519 37° Northeast 450 518 39,000  Level Washington Center
10:46AM 36.2247 -77.4742 37° Northeast 456 525 39,000  Level Washington Center
10:47AM 36.3328 -77.3736 37° Northeast 451 519 39,000  Level Washington Center
10:48AM 36.4489 -77.2653 37° Northeast 461 531 39,000  Level Washington Center
10:49AM 36.5506 -77.1667 38° Northeast 461 531 39,000  Level Washington Center
10:50AM 36.6539 -77.0678 38° Northeast 466 536 39,000  Level Washington Center
10:51AM 36.7572 -76.9711 37° Northeast 466 536 39,000  Level Washington Center
10:52AM 36.8647 -76.8744 36° Northeast 466 536 39,000  Level Washington Center
10:53AM 36.9722 -76.7800 35° Northeast 466 536 39,000  Level Washington Center
10:54AM 37.0794 -76.6828 36° Northeast 466 536 39,000  Level Washington Center
10:55AM 37.1867 -76.5825 37° Northeast 471 542 39,000  Level Washington Center
10:56AM 37.2961 -76.4822 36° Northeast 471 542 39,000  Level Washington Center
10:57AM 37.4008 -76.3867 36° Northeast 477 549 39,000  Level Washington Center
10:58AM 37.4994 -76.2986 35° Northeast 487 560 39,000  Level Washington Center
10:59AM 37.6064 -76.2000 36° Northeast 480 552 39,000  Level Washington Center
11:00AM 37.7300 -76.0933 34° Northeast 480 552 39,000  Level Washington Center
11:01AM 37.8242 -75.9992 38° Northeast 474 545 39,000  Level Washington Center
11:02AM 37.9331 -75.8972 36° Northeast 479 551 39,000  Level Washington Center
11:03AM 38.0311 -75.8053 36° Northeast 484 557 39,000  Level Washington Center
11:04AM 38.1503 -75.6919 37° Northeast 484 557 39,000  Level Washington Center
11:05AM 38.2608 -75.5892 36° Northeast 484 557 39,000  Level Washington Center
11:06AM 38.3794 -75.4964 32° Northeast 489 563 39,000  Level Washington Center
11:07AM 38.5086 -75.4431 18° North 479 551 39,000  Level Washington Center
11:08AM 38.6400 -75.3922 17° North 479 551 39,000  Level Washington Center
11:09AM 38.7669 -75.3361 19° North 479 551 39,000  Level Washington Center
11:10AM 38.8794 -75.2369 34° Northeast 484 557 39,000  Level Washington Center
11:11AM 38.9894 -75.1269 38° Northeast 484 557 39,000  Level Washington Center
11:12AM 39.0975 -75.0167 38° Northeast 489 563 39,000  Level Washington Center
11:13AM 39.2053 -74.9114 37° Northeast 489 563 39,000  Level Washington Center
11:14AM 39.3275 -74.7919 37° Northeast 489 563 39,000 -60 Level Washington Center
11:15AM 39.4350 -74.6833 38° Northeast 489 563 38,900 -600 Descending Washington Center
11:16AM 39.5467 -74.5717 38° Northeast 489 563 37,900 -960 Descending Washington Center
11:17AM 39.6581 -74.4622 37° Northeast 489 563 37,000 -900 Descending Washington Center
11:18AM 39.7717 -74.3497 37° Northeast 500 575 36,100 -1,320 Descending Washington Center
11:20AM 39.9306 -74.1897 38° Northeast 508 585 33,700 -2,400 Descending New York Center
11:21AM 40.0467 -74.0736 37° Northeast 513 590 30,100 -2,700 Descending New York Center
11:22AM 40.1581 -73.9594 38° Northeast 513 590 28,300 -1,560 Descending New York Center
11:23AM 40.2589 -73.8553 38° Northeast 488 562 27,100 -1,200 Descending New York Center
11:24AM 40.3658 -73.7483 37° Northeast 458 527 25,900 -1,020 Descending New York Center
11:26AM 40.5675 -73.5328 39° Northeast 442 509 23,900 -1,320 Descending Boston Center
11:27AM 40.6600 -73.4386 38° Northeast 437 503 21,800 -2,100 Descending Boston Center
11:28AM 40.7544 -73.3497 35° Northeast 423 487 19,800 -1,440 Descending Boston Center
11:29AM 40.8428 -73.2494 41° Northeast 404 465 19,000 -840 Descending Boston Center
11:30AM 40.9183 -73.1597 42° Northeast 384 442 18,200 -600 Descending Boston Center
11:31AM 40.9878 -73.0808 41° Northeast 371 427 17,800 -720 Descending Boston Center
11:32AM 41.0611 -72.9933 42° Northeast 359 413 16,800 -1,200 Descending Boston Center
11:33AM 41.1322 -72.9086 42° Northeast 348 400 15,400 -1,620 Descending Boston Center
11:34AM 41.2036 -72.8236 42° Northeast 342 394 13,600 -2,040 Descending Boston Center
11:34AM 41.2308 -72.7906 42° Northeast 339 390 12,800 -2,040 Descending Boston Center
11:35AM 41.2706 -72.7439 41° Northeast 332 382 11,700 -1,140 Descending Boston Center
11:36AM 41.3600 -72.7333 North 297 342 10,900 -780 Descending Boston Center
11:37AM 41.4267 -72.7889 328° Northwest 276 318 10,100 -780 Descending Boston Center
11:37AM 41.4536 -72.8111 328° Northwest 314 361 10,000 -840 Descending Boston Center
11:38AM 41.5097 -72.8419 338° Northwest 295 339 9,300 -1,260 Descending Boston Center
11:39AM 41.5411 -72.8450 356° North 295 339 8,600 -1,800 Descending Boston Center
11:39AM 41.5911 -72.8481 357° North 294 338 7,600 -1,320 Descending Boston Center
11:40AM 41.6703 -72.8569 355° North 283 326 6,500 -1,200 Descending Boston Center
11:41AM 41.7347 -72.8603 358° North 271 312 5,200 -1,500 Descending Boston Center
11:42AM 41.8139 -72.8550 North 229 264 3,400 -1,320 Descending Boston Center
11:43AM 41.8475 -72.8136 43° Northeast 200 230 2,700 -900 Descending Boston Center
11:44AM 41.8831 -72.7664 45° Northeast 177 204 1,800 -1,020 Descending Boston Center
11:45AM 41.8956 -72.7497 45° Northeast 152 175 1,200 -720 Descending Boston Center
11:45AM 41.9061 -72.7331 50° Northeast 149 171 1,100 -600 Descending Boston Center
11:46AM 41.9186 -72.7192 40° Northeast 125 144 600 -600 Descending Boston Center
11:46AM 41.9333 -72.6997 44° Northeast 132 152 500 -240 Descending Boston Center
11:51AM 41.9333 -72.6833 225° Southwest  Level FlightAware Approximate
11:58AM 41.9392 -72.6834 225° Southwest  Level Estimated
11:59AM 41.9333 -72.6833 225° Southwest  Level FlightAware Approximate